Aeroporto :
LOGIN :

Iscrizione | Disclaimer

   EN    FR    IT 

 










Sommario :    VFR   VFR Marginale   IFR   IFR Intensivo   IFR Molto Intensivo
Visibilità : 
Base nubi : 
>= 8 km
>= 3000ft
5 / 8 km
1000 / 3000 ft
1500m / 5 km
500 / 1000 ft
800 / 1500m
200 / 500 ft
< 800m
< 200 ft
Simboli :   Temporali  Nebbia  Neve Forte  Precipitazioni Forti  Vento > 20 kt
SIGMETs :   Varie  Temporali  Ghiacco  Turbolenza  Onda orograficha  Ceneri Vulcaniche






- Altitudine del aeroporto : 1789 ft
- Codice IATA : PRN


BKPR - Pristina

ULTIMO METAR :
  • 051630Z VRB02KT CAVOK 01/M03 Q1027 NOSIG RMK 17010095

METARs OBSOLETI :
  • 051600Z 00000KT CAVOK 01/M03 Q1027 NOSIG RMK 17010095
  • 051530Z VRB02KT CAVOK 02/M03 Q1027 NOSIG RMK 17010095
  • 051500Z VRB02KT CAVOK 04/M02 Q1027 NOSIG RMK 17010095
  • 051430Z VRB02KT CAVOK 05/M02 Q1026 NOSIG RMK 17010095
  • 051400Z 24004KT CAVOK 05/M02 Q1026 NOSIG RMK 17010095

TAF TAF BKPR
Valido dal 05 a 12 ore il 06 a 12 ore UTC


051130Z 0512/0612 18006KT CAVOK
BECMG 0522/0524 3000 BR
BECMG 0600/0602 0300 FZFG BKN003
BECMG 0608/0610 3000 BR SCT010
BECMG 0609/0611 9999 NSW



MetMap, La meteo Aeronautica in un colpo d'occhio ! - Copyright ORBIFLY Dicembre 2007 - Disclaimer

ORBIFLY MET'MAP TEAM :

Programmazione e sviluppo : Alexandra Zaïnal
Concezione : Baudouin d'Aumeries
Aiuto per la programmazione : Marc-Olivier Méhu
Supporto tecnico e logistico : Manuel Goepfert
Aiuto per la traduzione : Arnaldo La Scala

Contatto : metmap@orbifly.com




FONTI E CREDITI :

   NOAA